createdAt,value
2023-02-20T00:01:04.007Z,10.33
2023-02-20T00:03:31.697Z,12.67
2023-02-20T00:05:58.707Z,9.00
2023-02-20T00:08:25.598Z,8.00
2023-02-20T00:10:52.546Z,11.00
2023-02-20T00:13:19.421Z,8.33
2023-02-20T00:15:46.330Z,9.00
2023-02-20T00:18:13.564Z,9.00
2023-02-20T00:20:40.679Z,6.00
2023-02-20T00:23:07.566Z,8.00
2023-02-20T00:25:34.479Z,8.00
2023-02-20T00:28:01.423Z,6.00
2023-02-20T00:30:28.553Z,5.00
2023-02-20T00:32:57.233Z,4.00
2023-02-20T00:35:26.169Z,2.50
2023-02-20T00:37:54.364Z,4.00
2023-02-20T00:40:24.582Z,2.00
2023-02-20T00:42:52.002Z,5.00
2023-02-20T00:45:19.717Z,4.25
2023-02-20T00:47:46.713Z,5.50
2023-02-20T00:50:15.357Z,4.00
2023-02-20T00:52:42.323Z,5.00
2023-02-20T00:55:09.572Z,1.00
2023-02-20T00:57:36.679Z,4.00
2023-02-20T01:00:06.192Z,8.00
2023-02-20T01:02:33.195Z,5.75
2023-02-20T01:05:00.147Z,5.67
2023-02-20T01:07:27.068Z,6.00
2023-02-20T01:09:53.947Z,6.00
2023-02-20T01:12:20.850Z,4.00
2023-02-20T01:14:47.759Z,4.00
2023-02-20T01:17:15.185Z,4.00
2023-02-20T01:19:43.064Z,3.50
2023-02-20T01:22:10.008Z,4.00
2023-02-20T01:24:37.003Z,2.00
2023-02-20T01:27:04.149Z,5.00
2023-02-20T01:29:31.407Z,4.33
2023-02-20T01:31:58.364Z,4.00
2023-02-20T01:34:25.370Z,4.50
2023-02-20T01:36:54.768Z,3.00
2023-02-20T01:39:24.557Z,4.25
2023-02-20T01:41:56.034Z,3.25
2023-02-20T01:44:33.317Z,1.75
2023-02-20T01:47:02.280Z,3.50
2023-02-20T01:49:37.055Z,5.00
2023-02-20T01:52:12.727Z,5.00
2023-02-20T01:54:42.395Z,3.50
2023-02-20T01:57:14.870Z,2.00
2023-02-20T01:59:43.056Z,4.00
2023-02-20T02:02:11.432Z,2.50
2023-02-20T02:04:41.051Z,2.00
2023-02-20T02:07:25.343Z,4.00
2023-02-20T02:10:19.602Z,4.00
2023-02-20T02:13:12.383Z,2.00
2023-02-20T02:15:54.914Z,2.00
2023-02-20T02:19:22.563Z,2.00
2023-02-20T02:22:11.204Z,2.50
2023-02-20T02:25:17.947Z,3.50
2023-02-20T02:28:04.420Z,0.75
2023-02-20T02:30:43.539Z,2.00
2023-02-20T02:33:19.520Z,1.00
2023-02-20T02:36:01.330Z,0.00
2023-02-20T02:38:46.914Z,1.00
2023-02-20T02:41:13.784Z,0.25
2023-02-20T02:44:14.955Z,0.00
2023-02-20T02:46:50.349Z,0.00
2023-02-20T02:49:24.980Z,0.00
2023-02-20T02:51:54.573Z,1.00
2023-02-20T02:54:29.259Z,1.00
2023-02-20T02:57:24.418Z,0.00
2023-02-20T02:59:58.690Z,0.00
2023-02-20T03:02:29.982Z,0.00
2023-02-20T03:04:59.627Z,0.00
2023-02-20T03:07:28.856Z,1.00
2023-02-20T03:10:03.374Z,1.00
2023-02-20T03:12:34.410Z,0.00
2023-02-20T03:15:33.916Z,0.50
2023-02-20T03:18:25.722Z,0.50
2023-02-20T03:20:57.441Z,0.00
2023-02-20T03:23:32.231Z,0.00
2023-02-20T03:26:03.449Z,1.25
2023-02-20T03:28:43.536Z,1.00
2023-02-20T03:31:19.563Z,1.50
2023-02-20T03:34:10.156Z,1.00
2023-02-20T03:36:55.545Z,0.00
2023-02-20T03:39:47.917Z,1.00
2023-02-20T03:42:35.922Z,1.00
2023-02-20T03:45:05.390Z,0.00
2023-02-20T03:47:36.800Z,1.00
2023-02-20T03:50:08.610Z,0.00
2023-02-20T03:52:35.577Z,1.00
2023-02-20T03:55:02.931Z,0.75
2023-02-20T03:57:42.267Z,0.00
2023-02-20T04:00:18.649Z,0.00
2023-02-20T04:02:48.616Z,0.00
2023-02-20T04:05:22.887Z,1.75
2023-02-20T04:08:03.470Z,1.00
2023-02-20T04:10:36.035Z,0.00
2023-02-20T04:13:05.000Z,0.00
2023-02-20T04:15:33.933Z,1.00
2023-02-20T04:18:08.312Z,0.25
2023-02-20T04:20:35.392Z,1.00
2023-02-20T04:23:15.601Z,0.75
2023-02-20T04:25:55.530Z,0.00
2023-02-20T04:28:23.734Z,0.50
2023-02-20T04:30:51.567Z,0.25
2023-02-20T04:33:19.324Z,0.00
2023-02-20T04:35:46.284Z,1.75
2023-02-20T04:38:13.943Z,0.25
2023-02-20T04:40:41.186Z,0.00
2023-02-20T04:43:08.231Z,0.25
2023-02-20T04:45:35.230Z,1.00
2023-02-20T04:48:02.190Z,1.00
2023-02-20T04:50:34.687Z,2.00
2023-02-20T04:53:03.088Z,1.00
2023-02-20T04:55:30.159Z,0.00
2023-02-20T04:57:58.645Z,1.00
2023-02-20T05:00:27.019Z,1.00
2023-02-20T05:02:54.985Z,1.00
2023-02-20T05:05:27.620Z,1.00
2023-02-20T05:08:00.106Z,1.00
2023-02-20T05:10:28.547Z,0.33
2023-02-20T05:12:56.694Z,1.00
2023-02-20T05:15:23.781Z,2.00
2023-02-20T05:17:50.760Z,2.00
2023-02-20T05:20:18.628Z,4.00
2023-02-20T05:22:47.101Z,4.00
2023-02-20T05:25:15.352Z,4.00
2023-02-20T05:27:42.849Z,2.00
2023-02-20T05:30:10.764Z,5.00
2023-02-20T05:32:38.035Z,5.00
2023-02-20T05:35:05.303Z,4.00
2023-02-20T05:37:33.610Z,4.00
2023-02-20T05:40:00.788Z,7.33
2023-02-20T05:42:27.727Z,8.00
2023-02-20T05:44:54.698Z,5.00
2023-02-20T05:47:21.651Z,5.00
2023-02-20T05:49:48.529Z,4.67
2023-02-20T05:52:15.584Z,5.00
2023-02-20T05:54:42.608Z,8.00
2023-02-20T05:57:11.760Z,6.00
2023-02-20T05:59:38.652Z,6.00
2023-02-20T06:02:05.675Z,6.00
2023-02-20T06:04:32.686Z,5.00
2023-02-20T06:06:59.597Z,6.00
2023-02-20T06:09:26.494Z,5.00
2023-02-20T06:11:56.167Z,7.67
2023-02-20T06:14:25.794Z,6.33
2023-02-20T06:16:52.764Z,8.67
2023-02-20T06:19:24.834Z,8.67
2023-02-20T06:21:58.892Z,9.00
2023-02-20T06:24:26.186Z,8.67
2023-02-20T06:26:53.206Z,6.00
2023-02-20T06:29:20.587Z,9.00
2023-02-20T06:31:48.291Z,7.33
2023-02-20T06:34:16.462Z,5.67
2023-02-20T06:36:44.028Z,5.33
2023-02-20T06:39:13.205Z,6.00
2023-02-20T06:41:41.033Z,5.00
2023-02-20T06:44:08.757Z,5.00
2023-02-20T06:46:35.716Z,7.33
2023-02-20T06:49:02.885Z,8.33
2023-02-20T06:51:34.601Z,8.00
2023-02-20T06:54:03.115Z,5.00
2023-02-20T06:56:33.083Z,25.67
2023-02-20T06:59:01.494Z,20.00
2023-02-20T07:01:32.170Z,12.33
2023-02-20T07:04:02.067Z,7.33
2023-02-20T07:06:29.726Z,12.67
2023-02-20T07:08:56.639Z,9.33
2023-02-20T07:11:24.827Z,13.67
2023-02-20T07:13:52.168Z,13.00
2023-02-20T07:16:19.133Z,11.00
2023-02-20T07:18:46.284Z,18.33
2023-02-20T07:21:13.269Z,21.33
2023-02-20T07:23:40.156Z,17.33
2023-02-20T07:26:07.091Z,13.33
2023-02-20T07:28:36.825Z,11.33
2023-02-20T07:31:03.929Z,9.75
2023-02-20T07:33:30.825Z,9.00
2023-02-20T07:35:57.766Z,0.75
2023-02-20T07:38:24.821Z,2.00
2023-02-20T07:40:51.756Z,6.25
2023-02-20T07:43:18.706Z,6.75
2023-02-20T07:45:45.641Z,6.50
2023-02-20T07:48:12.672Z,10.00
2023-02-20T07:50:39.588Z,10.25
2023-02-20T07:53:06.566Z,10.00
2023-02-20T07:55:33.522Z,10.25
2023-02-20T07:58:00.469Z,11.00
2023-02-20T08:00:28.353Z,13.75
2023-02-20T08:02:55.361Z,14.75
2023-02-20T08:05:22.526Z,14.75
2023-02-20T08:07:50.589Z,13.50
2023-02-20T08:10:20.964Z,12.00
2023-02-20T08:12:49.218Z,12.00
2023-02-20T08:15:17.697Z,11.50
2023-02-20T08:17:47.123Z,12.25
2023-02-20T08:20:17.309Z,9.50
2023-02-20T08:22:45.480Z,14.00
2023-02-20T08:25:12.813Z,15.00
2023-02-20T08:27:44.082Z,15.25
2023-02-20T08:30:17.722Z,11.75
2023-02-20T08:32:44.741Z,11.00
2023-02-20T08:35:11.792Z,11.75
2023-02-20T08:37:38.724Z,10.00
2023-02-20T08:40:08.862Z,9.00
2023-02-20T08:42:36.134Z,9.50
2023-02-20T08:45:05.886Z,10.00
2023-02-20T08:47:33.644Z,8.00
2023-02-20T08:50:00.670Z,6.50
2023-02-20T08:52:27.870Z,8.50
2023-02-20T08:54:54.816Z,11.00
2023-02-20T08:57:21.807Z,10.00
2023-02-20T08:59:48.712Z,7.00
2023-02-20T09:02:22.297Z,7.50
2023-02-20T09:04:49.308Z,8.25
2023-02-20T09:07:16.238Z,7.00
2023-02-20T09:09:43.342Z,7.00
2023-02-20T09:12:10.656Z,9.00
2023-02-20T09:14:38.296Z,1.50
2023-02-20T09:17:06.310Z,6.75
2023-02-20T09:19:33.701Z,6.50
2023-02-20T09:22:01.088Z,9.75
2023-02-20T09:24:34.552Z,10.00
2023-02-20T09:27:02.671Z,8.00
2023-02-20T09:29:30.030Z,7.75
2023-02-20T09:31:57.388Z,8.50
2023-02-20T09:34:24.830Z,10.25
2023-02-20T09:36:51.774Z,10.50
2023-02-20T09:39:19.761Z,12.75
2023-02-20T09:42:18.278Z,8.25
2023-02-20T09:45:24.405Z,8.25
2023-02-20T09:48:00.457Z,11.50
2023-02-20T09:50:33.178Z,11.00
2023-02-20T09:53:08.693Z,12.00
2023-02-20T09:55:40.699Z,8.50
2023-02-20T09:58:24.099Z,10.00
2023-02-20T10:00:51.482Z,10.75
2023-02-20T10:03:33.312Z,9.25
2023-02-20T10:06:02.250Z,7.00
2023-02-20T10:08:29.921Z,8.00
2023-02-20T10:11:03.892Z,10.00
2023-02-20T10:13:56.504Z,6.00
2023-02-20T10:16:37.271Z,7.00
2023-02-20T10:19:26.638Z,10.00
2023-02-20T10:22:11.794Z,8.00
2023-02-20T10:24:44.494Z,11.00
2023-02-20T10:27:30.847Z,8.00
2023-02-20T10:30:00.092Z,9.50
2023-02-20T10:33:17.946Z,9.00
2023-02-20T10:35:50.301Z,7.00
2023-02-20T10:38:22.518Z,7.00
2023-02-20T10:41:13.966Z,10.25
2023-02-20T10:44:16.321Z,9.00
2023-02-20T10:46:57.423Z,7.50
2023-02-20T10:49:33.503Z,7.25
2023-02-20T10:52:02.832Z,6.75
2023-02-20T10:54:38.384Z,6.00
2023-02-20T10:57:14.769Z,7.00
2023-02-20T10:59:41.607Z,6.00
2023-02-20T11:02:21.874Z,6.00
2023-02-20T11:05:01.778Z,8.00
2023-02-20T11:07:28.858Z,7.00
2023-02-20T11:09:55.756Z,6.00
2023-02-20T11:12:27.082Z,6.00
2023-02-20T11:14:57.463Z,6.00
2023-02-20T11:17:27.876Z,6.00
2023-02-20T11:19:57.712Z,6.50
2023-02-20T11:22:48.887Z,6.50
2023-02-20T11:25:27.616Z,7.00
2023-02-20T11:28:18.145Z,9.25
2023-02-20T11:30:47.198Z,6.00
2023-02-20T11:33:23.967Z,7.25
2023-02-20T11:35:57.551Z,7.00
2023-02-20T11:38:29.012Z,7.00
2023-02-20T11:41:03.340Z,7.25
2023-02-20T11:43:43.513Z,6.75
2023-02-20T11:46:22.029Z,9.25
2023-02-20T11:48:54.998Z,8.25
2023-02-20T11:51:41.413Z,6.00
2023-02-20T11:54:22.030Z,9.00
2023-02-20T11:57:06.519Z,8.00
2023-02-20T11:59:41.965Z,6.00
2023-02-20T12:02:18.136Z,9.25
2023-02-20T12:05:01.064Z,8.25
2023-02-20T12:07:38.598Z,8.00
2023-02-20T12:10:12.415Z,8.00
2023-02-20T12:12:39.354Z,10.75
2023-02-20T12:15:14.832Z,8.00
2023-02-20T12:17:56.595Z,9.25
2023-02-20T12:20:26.508Z,12.00
2023-02-20T12:23:02.482Z,12.00
2023-02-20T12:25:47.469Z,11.25
2023-02-20T12:28:38.783Z,10.50
2023-02-20T12:31:47.782Z,12.00
2023-02-20T12:34:49.947Z,9.75
2023-02-20T12:37:40.935Z,11.00
2023-02-20T12:40:37.786Z,13.00
2023-02-20T12:43:22.982Z,9.25
2023-02-20T12:46:14.256Z,13.50
2023-02-20T12:49:03.008Z,10.00
2023-02-20T12:51:54.162Z,12.00
2023-02-20T12:54:51.753Z,12.50
2023-02-20T12:57:26.725Z,10.50
2023-02-20T13:00:04.285Z,10.50
2023-02-20T13:02:42.111Z,8.00
2023-02-20T13:05:15.154Z,10.50
2023-02-20T13:07:54.208Z,11.50
2023-02-20T13:10:23.647Z,10.75
2023-02-20T13:12:52.189Z,11.00
2023-02-20T13:15:41.544Z,11.50
2023-02-20T13:18:36.989Z,9.25
2023-02-20T13:21:12.078Z,8.00
2023-02-20T13:23:41.912Z,13.00
2023-02-20T13:26:27.361Z,10.25
2023-02-20T13:28:54.985Z,9.50
2023-02-20T13:31:45.997Z,11.75
2023-02-20T13:34:15.794Z,12.75
2023-02-20T13:36:49.894Z,9.50
2023-02-20T13:39:20.275Z,9.00
2023-02-20T13:41:56.500Z,11.50
2023-02-20T13:44:34.086Z,10.00
2023-02-20T13:47:03.858Z,11.25
2023-02-20T13:49:52.917Z,9.00
2023-02-20T13:52:42.188Z,10.00
2023-02-20T13:55:11.843Z,7.75
2023-02-20T13:57:54.811Z,7.25
2023-02-20T14:00:31.383Z,10.50
2023-02-20T14:02:58.360Z,7.50
2023-02-20T14:05:31.579Z,6.25
2023-02-20T14:07:59.969Z,8.50
2023-02-20T14:10:38.798Z,10.00
2023-02-20T14:13:30.849Z,12.00
2023-02-20T14:16:01.692Z,6.75
2023-02-20T14:18:34.965Z,9.25
2023-02-20T14:21:19.264Z,9.00
2023-02-20T14:23:48.138Z,11.00
2023-02-20T14:26:24.655Z,7.50
2023-02-20T14:28:54.500Z,10.75
2023-02-20T14:31:23.278Z,10.00
2023-02-20T14:33:59.093Z,13.00
2023-02-20T14:36:41.024Z,10.25
2023-02-20T14:39:37.040Z,9.50
2023-02-20T14:42:07.072Z,8.75
2023-02-20T14:44:34.164Z,9.00
2023-02-20T14:47:14.226Z,10.00
2023-02-20T14:49:41.801Z,11.50
2023-02-20T14:52:11.471Z,11.75
2023-02-20T14:54:39.756Z,12.00
2023-02-20T14:57:07.395Z,12.00
2023-02-20T14:59:40.323Z,10.00
2023-02-20T15:02:33.135Z,10.50
2023-02-20T15:05:00.916Z,14.00
2023-02-20T15:07:28.683Z,13.75
2023-02-20T15:10:02.377Z,10.25
2023-02-20T15:12:37.684Z,13.50
2023-02-20T15:15:14.075Z,13.00
2023-02-20T15:17:44.808Z,11.50
2023-02-20T15:20:20.967Z,10.00
2023-02-20T15:22:47.911Z,12.00
2023-02-20T15:25:32.618Z,8.00
2023-02-20T15:28:05.691Z,7.75
2023-02-20T15:30:32.842Z,10.00
2023-02-20T15:32:59.874Z,10.00
2023-02-20T15:35:30.203Z,10.00
2023-02-20T15:38:02.886Z,11.00
2023-02-20T15:40:33.139Z,11.25
2023-02-20T15:43:04.602Z,11.50
2023-02-20T15:45:37.861Z,9.00
2023-02-20T15:48:05.790Z,8.75
2023-02-20T15:50:35.146Z,7.00
2023-02-20T15:53:03.456Z,10.25
2023-02-20T15:55:35.355Z,8.25
2023-02-20T15:58:04.732Z,9.00
2023-02-20T16:00:34.303Z,8.75
2023-02-20T16:03:02.137Z,9.75
2023-02-20T16:05:31.672Z,8.00
2023-02-20T16:07:58.681Z,7.50
2023-02-20T16:10:26.043Z,6.50
2023-02-20T16:12:59.109Z,6.00
2023-02-20T16:15:26.607Z,9.75
2023-02-20T16:17:54.667Z,9.50
2023-02-20T16:20:24.697Z,8.75
2023-02-20T16:22:52.347Z,9.25
2023-02-20T16:25:23.023Z,10.00
2023-02-20T16:27:53.394Z,9.00
2023-02-20T16:30:33.849Z,8.25
2023-02-20T16:33:02.650Z,8.00
2023-02-20T16:35:29.604Z,9.00
2023-02-20T16:37:56.504Z,8.25
2023-02-20T16:40:23.687Z,8.00
2023-02-20T16:42:50.604Z,8.50
2023-02-20T16:45:19.737Z,10.00
2023-02-20T16:47:53.097Z,8.00
2023-02-20T16:50:23.962Z,8.00
2023-02-20T16:52:53.222Z,7.50
2023-02-20T16:55:22.580Z,9.00
2023-02-20T16:57:49.579Z,8.00
2023-02-20T17:00:22.493Z,9.25
2023-02-20T17:02:49.363Z,9.00
2023-02-20T17:05:16.563Z,5.75
2023-02-20T17:07:43.585Z,8.25
2023-02-20T17:10:10.657Z,7.00
2023-02-20T17:12:37.641Z,7.00
2023-02-20T17:15:06.725Z,9.25
2023-02-20T17:17:33.948Z,12.00
2023-02-20T17:20:01.833Z,11.25
2023-02-20T17:22:29.670Z,11.00
2023-02-20T17:24:57.528Z,10.00
2023-02-20T17:27:25.116Z,10.00
2023-02-20T17:29:52.051Z,9.75
2023-02-20T17:32:21.442Z,8.00
2023-02-20T17:34:48.454Z,10.50
2023-02-20T17:37:15.724Z,8.75
2023-02-20T17:39:42.758Z,10.00
2023-02-20T17:42:09.775Z,9.75
2023-02-20T17:44:38.671Z,9.00
2023-02-20T17:47:05.852Z,9.00
2023-02-20T17:49:32.775Z,10.00
2023-02-20T17:52:00.322Z,8.00
2023-02-20T17:54:34.574Z,8.00
2023-02-20T17:57:02.365Z,6.50
2023-02-20T17:59:30.650Z,7.00
2023-02-20T18:01:57.591Z,7.75
2023-02-20T18:04:25.702Z,7.75
2023-02-20T18:06:54.551Z,8.50
2023-02-20T18:09:23.835Z,7.25
2023-02-20T18:11:52.174Z,7.00
2023-02-20T18:14:20.541Z,6.75
2023-02-20T18:16:48.057Z,7.00
2023-02-20T18:19:17.975Z,5.25
2023-02-20T18:21:49.487Z,7.00
2023-02-20T18:24:18.841Z,5.50
2023-02-20T18:26:45.908Z,6.00
2023-02-20T18:29:13.200Z,5.00
2023-02-20T18:31:40.612Z,6.75
2023-02-20T18:34:07.695Z,7.75
2023-02-20T18:36:34.750Z,7.75
2023-02-20T18:39:01.635Z,5.00
2023-02-20T18:41:28.596Z,7.00
2023-02-20T18:43:55.741Z,5.00
2023-02-20T18:46:31.756Z,5.25
2023-02-20T18:48:59.719Z,7.00
2023-02-20T18:51:28.436Z,7.00
2023-02-20T18:53:55.747Z,4.25
2023-02-20T18:56:24.202Z,4.50
2023-02-20T18:58:51.224Z,6.00
2023-02-20T19:01:20.021Z,8.00
2023-02-20T19:03:52.739Z,7.50
2023-02-20T19:06:51.382Z,8.00
2023-02-20T19:09:21.928Z,7.50
2023-02-20T19:11:50.670Z,6.75
2023-02-20T19:14:18.652Z,5.00
2023-02-20T19:16:56.469Z,6.50
2023-02-20T19:19:26.089Z,4.75
2023-02-20T19:21:54.243Z,7.00
2023-02-20T19:24:22.099Z,5.25
2023-02-20T19:26:49.164Z,5.25
2023-02-20T19:29:17.430Z,7.00
2023-02-20T19:31:44.493Z,6.00
2023-02-20T19:34:11.626Z,2.75
2023-02-20T19:36:42.077Z,7.75
2023-02-20T19:39:09.968Z,4.00
2023-02-20T19:41:38.773Z,5.00
2023-02-20T19:44:07.529Z,7.00
2023-02-20T19:46:34.673Z,4.75
2023-02-20T19:49:01.813Z,8.00
2023-02-20T19:51:29.044Z,5.25
2023-02-20T19:53:55.992Z,4.00
2023-02-20T19:56:22.940Z,6.75
2023-02-20T19:58:49.929Z,5.00
2023-02-20T20:01:19.496Z,4.75
2023-02-20T20:03:48.559Z,6.50
2023-02-20T20:06:18.144Z,4.25
2023-02-20T20:09:10.014Z,5.50
2023-02-20T20:11:35.220Z,5.00
2023-02-20T20:14:02.131Z,5.00
2023-02-20T20:16:29.740Z,8.00
2023-02-20T20:18:56.753Z,7.00
2023-02-20T20:21:23.626Z,5.25
2023-02-20T20:23:54.481Z,6.00
2023-02-20T20:26:26.853Z,7.00
2023-02-20T20:28:54.191Z,6.75
2023-02-20T20:31:25.044Z,7.00
2023-02-20T20:33:53.111Z,7.00
2023-02-20T20:36:20.106Z,6.00
2023-02-20T20:38:47.304Z,7.00
2023-02-20T20:41:15.475Z,7.75
2023-02-20T20:43:44.408Z,4.25
2023-02-20T20:46:12.157Z,6.75
2023-02-20T20:48:45.171Z,5.00
2023-02-20T20:51:13.540Z,5.00
2023-02-20T20:53:40.797Z,5.00
2023-02-20T20:56:08.865Z,3.50
2023-02-20T20:58:36.571Z,5.00
2023-02-20T21:01:04.387Z,7.00
2023-02-20T21:03:31.239Z,2.00
2023-02-20T21:05:58.835Z,4.25
2023-02-20T21:08:26.015Z,5.25
2023-02-20T21:10:53.256Z,4.00
2023-02-20T21:13:20.730Z,4.00
2023-02-20T21:15:48.148Z,4.50
2023-02-20T21:18:15.199Z,3.25
2023-02-20T21:20:43.204Z,5.00
2023-02-20T21:23:11.240Z,4.00
2023-02-20T21:25:38.985Z,4.75
2023-02-20T21:28:06.288Z,4.00
2023-02-20T21:30:33.232Z,4.50
2023-02-20T21:33:00.757Z,4.00
2023-02-20T21:35:27.666Z,4.00
2023-02-20T21:37:55.326Z,4.00
2023-02-20T21:40:22.700Z,2.75
2023-02-20T21:43:08.247Z,4.00
2023-02-20T21:45:36.652Z,4.00
2023-02-20T21:48:05.484Z,4.00
2023-02-20T21:50:32.908Z,4.00
2023-02-20T21:53:00.520Z,4.00
2023-02-20T21:55:27.468Z,3.00
2023-02-20T21:57:54.616Z,3.00
2023-02-20T22:00:21.703Z,3.00
2023-02-20T22:02:48.675Z,3.25
2023-02-20T22:05:15.616Z,3.25
2023-02-20T22:08:00.996Z,3.00
2023-02-20T22:10:46.391Z,3.50
2023-02-20T22:13:31.835Z,3.00
2023-02-20T22:16:17.249Z,3.00
2023-02-20T22:19:03.084Z,4.00
2023-02-20T22:21:48.693Z,4.00
2023-02-20T22:24:38.478Z,3.00
2023-02-20T22:27:26.594Z,2.00
2023-02-20T22:30:12.438Z,2.50
2023-02-20T22:32:58.006Z,2.75
2023-02-20T22:35:43.550Z,4.00
2023-02-20T22:38:29.177Z,3.00
2023-02-20T22:41:14.633Z,3.00
2023-02-20T22:44:00.083Z,3.00
2023-02-20T22:46:45.436Z,3.75
2023-02-20T22:49:30.842Z,3.00
2023-02-20T22:52:16.227Z,3.00
2023-02-20T22:55:05.012Z,3.50
2023-02-20T22:57:51.275Z,3.00
2023-02-20T23:00:37.447Z,3.00
2023-02-20T23:03:23.023Z,4.00
2023-02-20T23:06:17.538Z,3.00
2023-02-20T23:09:04.897Z,1.50
2023-02-20T23:11:55.647Z,3.00
2023-02-20T23:14:41.921Z,3.75
2023-02-20T23:17:42.363Z,3.00
2023-02-20T23:20:37.471Z,3.00
2023-02-20T23:23:24.363Z,3.00
2023-02-20T23:26:09.769Z,3.25
2023-02-20T23:28:55.851Z,3.00
2023-02-20T23:31:59.066Z,3.00
2023-02-20T23:34:45.849Z,2.75
2023-02-20T23:37:32.759Z,4.25
2023-02-20T23:40:24.047Z,4.00
2023-02-20T23:43:16.177Z,2.00
2023-02-20T23:46:01.610Z,3.00
2023-02-20T23:48:47.441Z,4.00
2023-02-20T23:51:32.961Z,3.00
2023-02-20T23:54:18.545Z,2.25
2023-02-20T23:57:03.956Z,4.00
2023-02-20T23:59:49.471Z,3.50
